Marsh, Pennsylvania
Current Conditions -  °F | °C
As of 11:55 AM on Friday 28 Nov 2014 (Local Time) from KMQS Reporting Station
Overcast Overcast  
Wind Chill: -6°   Ceiling: 4600
Heat Index:   Visibility: 10mi
Dew Point: -8°   Wind: 14mph
Humidity: 55%   Direction: 310°NW
Pressure: 30.22"   Gusts: 20mph
Location:  40.1578°N, 75.7894°W
Report Text: KMQS 281655Z AUTO 31012G17KT 10SM OVC046 00/M08 A3022 RMK AO2
Loading
Personal Weather Stations






























Interactive Weather Map New forecast layout! Learn more

10-Day Weather Forecast

Advertisements
Track Severe Weather on mobile